This is the latest recevied weather packets stored in our database for station/object SQ9RHX-11. If no packets are shown the sender has not sent any weather packets the latest 10 day(s).
| Time | Temp. | Humidity | Pressure | Rain* | Wind** | Luminosity | Snow |
|---|---|---|---|---|---|---|---|
| 1778023846 | 11.11° C | 73% | 1005.6 hPa | - | - | - | - |
| 1778022045 | 12.22° C | 73% | 1005.8 hPa | - | - | - | - |
| 1778020246 | 12.78° C | 73% | 1006 hPa | - | - | - | - |
| 1778018447 | 13.33° C | 69% | 1006.2 hPa | - | - | - | - |
| 1778016648 | 14.44° C | 68% | 1006.2 hPa | - | - | - | - |
| 1778014849 | 15.56° C | 67% | 1006.1 hPa | - | - | - | - |
| 1778013050 | 16.67° C | 66% | 1006.1 hPa | - | - | - | - |
| 1778011251 | 16.67° C | 65% | 1006.2 hPa | - | - | - | - |
| 1778009452 | 17.22° C | 66% | 1006.2 hPa | - | - | - | - |
| 1778007652 | 17.22° C | 65% | 1006.2 hPa | - | - | - | - |
| 1778005853 | 18.33° C | 62% | 1006.6 hPa | - | - | - | - |
| 1778004053 | 20° C | 57% | 1006 hPa | - | - | - | - |
| 1778002254 | 21.11° C | 53% | 1005.7 hPa | - | - | - | - |
| 1778000455 | 22.78° C | 48% | 1005.6 hPa | - | - | - | - |
| 1777998656 | 26.11° C | 33% | 1005.3 hPa | - | - | - | - |
| 1777996856 | 27.78° C | 30% | 1005.4 hPa | - | - | - | - |
| 1777995056 | 29.44° C | 29% | 1005.6 hPa | - | - | - | - |
| 1777993256 | 29.44° C | 28% | 1005.8 hPa | - | - | - | - |
| 1777991456 | 28.89° C | 29% | 1005.9 hPa | - | - | - | - |
| 1777989655 | 29.44° C | 28% | 1006.2 hPa | - | - | - | - |
| 1777987856 | 31.67° C | 26% | 1006.4 hPa | - | - | - | - |
| 1777986056 | 32.22° C | 26% | 1006.6 hPa | - | - | - | - |
| 1777984256 | 32.22° C | 27% | 1006.8 hPa | - | - | - | - |
| 1777982457 | 30.56° C | 29% | 1007.3 hPa | - | - | - | - |
| 1777980658 | 30.56° C | 29% | 1007.5 hPa | - | - | - | - |
* Rain since midnight (hover to see other rain measurements)
** Current wind speed in m/s (hover to see current wind gust speed)